Time;durP1;ratioP1;P1;durP2;ratioP2;P2;SDS_P1;SDS_P2;PMS_P1;PMS_P2;Temp;Humidity;BMP_temperature;BMP_pressure;BME280_temperature;BME280_humidity;BME280_pressure;Samples;Min_cycle;Max_cycle;Signal;HPM_P1;HPM_P2
2022/11/08 00:02:18;;;;;;;16.90;10.50;;;;;;;8.16;73.99;99993.94;5014600;28;20474;-92
2022/11/08 00:04:44;;;;;;;20.25;10.57;;;;;;;8.07;74.44;99982.75;5008630;28;20029;-93
2022/11/08 00:15:25;;;;;;;19.80;9.82;;;;;;;8.09;74.88;99986.00;5005105;28;20056;-92
2022/11/08 00:17:50;;;;;;;15.00;9.15;;;;;;;8.14;74.50;99977.25;4983139;28;20053;-92
2022/11/08 00:20:16;;;;;;;15.73;8.75;;;;;;;8.33;73.65;99988.63;4986135;28;20033;-92
2022/11/08 00:22:41;;;;;;;21.92;9.63;;;;;;;8.28;73.64;99981.31;4987312;28;20030;-93
2022/11/08 00:25:07;;;;;;;15.55;8.68;;;;;;;8.32;73.76;99987.00;4988271;28;20029;-95
2022/11/08 00:27:32;;;;;;;20.13;8.95;;;;;;;8.26;73.97;99976.19;5002326;28;20073;-92
2022/11/08 00:29:58;;;;;;;18.90;9.80;;;;;;;8.34;73.98;99984.88;4990041;28;20021;-92
2022/11/08 00:32:24;;;;;;;14.18;8.65;;;;;;;8.21;74.33;99959.97;5007900;28;20114;-92
2022/11/08 00:34:50;;;;;;;14.13;9.80;;;;;;;8.29;74.28;99972.19;4993672;28;20021;-93
2022/11/08 00:37:16;;;;;;;18.55;9.85;;;;;;;8.34;73.79;99964.22;5004636;28;20030;-94
2022/11/08 00:39:41;;;;;;;19.17;9.43;;;;;;;8.41;73.35;99959.59;4996773;28;20016;-92
2022/11/08 00:42:07;;;;;;;16.00;8.55;;;;;;;8.55;73.09;99972.69;4992587;28;20028;-92
2022/11/08 00:44:32;;;;;;;15.30;8.57;;;;;;;8.45;73.00;99944.63;4996518;28;20033;-95
2022/11/08 00:46:58;;;;;;;17.85;9.27;;;;;;;8.48;73.69;99954.88;4992888;28;20446;-92
2022/11/08 00:49:23;;;;;;;16.42;9.32;;;;;;;8.46;72.59;99930.16;4990976;28;20020;-94
2022/11/08 00:51:49;;;;;;;13.52;8.18;;;;;;;8.62;72.48;99938.50;4996170;28;20039;-93
2022/11/08 00:54:18;;;;;;;20.42;8.73;;;;;;;8.64;71.54;99923.75;4988011;28;20049;-92
2022/11/08 00:56:44;;;;;;;12.70;7.68;;;;;;;8.89;71.39;99947.53;4997993;28;20086;-92
2022/11/08 00:59:11;;;;;;;15.82;9.18;;;;;;;8.65;72.21;99932.63;4986664;28;20487;-94
2022/11/08 01:01:37;;;;;;;15.50;8.65;;;;;;;8.69;72.25;99947.19;4990566;28;20076;-95
2022/11/08 01:04:02;;;;;;;13.85;8.13;;;;;;;8.59;73.00;99939.78;5001890;28;20926;-94
2022/11/08 01:06:28;;;;;;;18.25;8.20;;;;;;;8.57;72.67;99927.66;4993878;28;20121;-94
2022/11/08 01:08:56;;;;;;;12.65;8.52;;;;;;;8.55;72.80;99933.28;4992286;28;20032;-94
2022/11/08 01:11:22;;;;;;;17.05;9.50;;;;;;;8.41;73.24;99927.38;4987307;28;20044;-95
2022/11/08 01:13:47;;;;;;;16.95;9.20;;;;;;;8.39;73.21;99928.66;4988914;28;20462;-94
2022/11/08 01:16:20;;;;;;;13.02;8.55;;;;;;;8.48;73.54;99949.50;4994256;28;20037;-93
2022/11/08 01:18:45;;;;;;;13.32;8.73;;;;;;;8.34;73.28;99915.94;5022317;28;20041;-95
2022/11/08 01:21:11;;;;;;;15.20;9.30;;;;;;;8.26;73.47;99919.84;4990507;28;20083;-94
2022/11/08 01:23:37;;;;;;;15.05;8.70;;;;;;;8.21;73.52;99914.34;5009938;28;20025;-94
2022/11/08 01:26:07;;;;;;;14.68;9.10;;;;;;;8.37;73.30;99931.56;4994211;28;20669;-94
2022/11/08 01:28:33;;;;;;;16.70;9.00;;;;;;;8.36;73.55;99931.81;5007111;28;20025;-94
2022/11/08 01:31:06;;;;;;;16.15;10.68;;;;;;;8.27;73.60;99932.19;4990273;28;20503;-94
2022/11/08 01:33:32;;;;;;;15.20;9.27;;;;;;;8.37;73.75;99936.13;4994108;28;20048;-94
2022/11/08 01:36:00;;;;;;;15.85;9.00;;;;;;;8.46;73.42;99932.81;4987820;28;20480;-94
2022/11/08 01:38:26;;;;;;;20.10;9.10;;;;;;;8.54;72.90;99933.50;4991522;28;20034;-94
2022/11/08 01:40:51;;;;;;;16.75;8.55;;;;;;;8.48;73.32;99935.28;4992759;28;20036;-94
2022/11/08 01:43:29;;;;;;;14.40;9.10;;;;;;;8.42;73.59;99931.69;4993082;28;20148;-95
2022/11/08 01:46:19;;;;;;;17.38;9.40;;;;;;;8.44;73.75;99934.13;5024059;28;20029;-94
2022/11/08 01:48:48;;;;;;;16.77;8.85;;;;;;;8.28;73.59;99919.59;5024500;28;20028;-94
2022/11/08 01:51:15;;;;;;;18.05;9.02;;;;;;;8.27;73.77;99924.13;5004360;28;20041;-94
2022/11/08 01:53:40;;;;;;;19.20;8.40;;;;;;;8.18;73.50;99914.84;4990141;28;20029;-94
2022/11/08 01:56:06;;;;;;;19.38;10.05;;;;;;;8.07;74.06;99908.47;4994039;28;20025;-94
2022/11/08 01:58:32;;;;;;;17.17;9.82;;;;;;;8.20;73.80;99918.09;4988064;28;20021;-94
2022/11/08 02:00:58;;;;;;;16.23;8.85;;;;;;;8.15;73.80;99923.34;4986634;28;20567;-95
2022/11/08 02:03:23;;;;;;;21.20;9.00;;;;;;;8.09;73.79;99913.59;4993601;28;20021;-93
2022/11/08 02:05:49;;;;;;;17.98;8.55;;;;;;;8.12;74.00;99925.72;4986830;28;20034;-95
2022/11/08 02:08:32;;;;;;;18.30;9.57;;;;;;;8.02;74.49;99920.97;4991206;28;20491;-93
2022/11/08 02:10:58;;;;;;;16.77;8.93;;;;;;;7.98;74.75;99919.81;5001727;28;20112;-94
2022/11/08 02:13:26;;;;;;;17.63;8.95;;;;;;;8.04;74.37;99926.91;4993983;28;20405;-95
2022/11/08 02:15:51;;;;;;;14.30;9.15;;;;;;;8.01;74.47;99924.69;5003791;28;20033;-92
2022/11/08 02:18:18;;;;;;;15.38;9.18;;;;;;;7.93;75.24;99922.38;4991279;28;20718;-92
2022/11/08 02:20:54;;;;;;;16.83;9.50;;;;;;;7.88;75.13;99907.81;4993538;28;20028;-93
2022/11/08 02:23:23;;;;;;;16.75;9.38;;;;;;;7.95;75.15;99921.09;5002065;28;20041;-92
2022/11/08 02:25:49;;;;;;;13.43;8.23;;;;;;;7.94;74.91;99915.97;4989907;28;20473;-93
2022/11/08 02:28:15;;;;;;;14.27;8.73;;;;;;;8.00;74.82;99931.13;4993393;28;20024;-92
2022/11/08 02:30:41;;;;;;;13.32;8.93;;;;;;;7.91;75.20;99922.63;4986372;28;20033;-93
2022/11/08 02:33:24;;;;;;;14.68;9.07;;;;;;;7.99;74.49;99916.91;4993424;28;20041;-93
2022/11/08 02:35:54;;;;;;;19.42;9.18;;;;;;;8.02;74.52;99918.28;4987389;28;20021;-92
2022/11/08 02:38:19;;;;;;;19.92;9.48;;;;;;;8.01;74.56;99930.88;4988876;28;20029;-93
2022/11/08 02:40:55;;;;;;;16.15;8.80;;;;;;;8.04;74.68;99940.31;4990134;28;20035;-92
2022/11/08 02:43:20;;;;;;;15.55;9.43;;;;;;;8.00;74.86;99931.94;5007497;28;20020;-93
2022/11/08 02:45:46;;;;;;;17.50;9.07;;;;;;;7.95;74.72;99931.84;4981221;28;20022;-93
2022/11/08 02:48:11;;;;;;;21.10;9.35;;;;;;;8.01;74.10;99930.06;4994693;28;20029;-92
2022/11/08 02:50:37;;;;;;;15.50;9.43;;;;;;;8.00;74.37;99921.19;4984326;28;20026;-93
2022/11/08 02:53:02;;;;;;;13.82;8.82;;;;;;;8.01;74.63;99922.84;4988387;28;20031;-93
2022/11/08 02:55:28;;;;;;;15.68;9.63;;;;;;;8.16;74.33;99940.28;4995628;28;20535;-93
2022/11/08 02:57:54;;;;;;;19.52;9.52;;;;;;;8.00;74.60;99931.94;4987217;28;20021;-92
2022/11/08 03:00:19;;;;;;;17.13;9.50;;;;;;;7.87;74.36;99930.34;4987278;28;20024;-91
2022/11/08 03:02:50;;;;;;;21.95;9.50;;;;;;;7.81;74.54;99917.88;4987213;28;20021;-93
2022/11/08 03:05:16;;;;;;;15.45;9.20;;;;;;;7.70;75.08;99913.38;4988905;28;20115;-94
2022/11/08 03:07:42;;;;;;;17.08;8.88;;;;;;;7.80;74.81;99926.13;4986414;28;20034;-95
2022/11/08 03:10:08;;;;;;;17.77;9.15;;;;;;;7.82;74.33;99916.00;4987078;28;20022;-94
2022/11/08 03:12:34;;;;;;;18.63;9.55;;;;;;;7.85;74.81;99921.72;4986935;28;20071;-93
2022/11/08 03:14:59;;;;;;;22.42;10.05;;;;;;;7.74;74.86;99913.69;4991483;28;20146;-94
2022/11/08 03:17:25;;;;;;;21.10;10.18;;;;;;;7.81;74.94;99920.56;4989980;28;20025;-94
2022/11/08 03:19:50;;;;;;;20.30;10.68;;;;;;;7.69;75.03;99912.53;4991244;28;20407;-95
2022/11/08 03:22:15;;;;;;;18.55;8.95;;;;;;;7.80;74.65;99929.66;5007517;28;20037;-94
2022/11/08 03:24:41;;;;;;;19.27;10.00;;;;;;;7.69;74.91;99919.75;4988388;28;20032;-94
2022/11/08 03:27:06;;;;;;;16.85;9.25;;;;;;;7.80;74.63;99926.97;5006173;28;20095;-94
2022/11/08 03:29:32;;;;;;;21.42;10.27;;;;;;;7.92;74.04;99931.50;4987074;28;20040;-94
2022/11/08 03:32:00;;;;;;;19.75;10.00;;;;;;;7.91;74.31;99933.38;5001536;28;20046;-94
2022/11/08 03:34:25;;;;;;;19.45;9.52;;;;;;;7.95;74.23;99934.53;4971066;28;20041;-93
2022/11/08 03:36:51;;;;;;;18.58;10.70;;;;;;;7.86;74.38;99931.41;4994850;28;20041;-93
2022/11/08 03:39:16;;;;;;;16.73;9.63;;;;;;;7.98;74.41;99939.41;4988664;28;20056;-94
2022/11/08 03:41:41;;;;;;;23.70;10.57;;;;;;;7.77;74.41;99922.06;4985301;28;21430;-94
2022/11/08 03:44:07;;;;;;;19.10;10.35;;;;;;;7.86;74.29;99933.25;4970151;28;20021;-94
2022/11/08 03:46:32;;;;;;;18.95;9.73;;;;;;;7.95;73.75;99934.53;4971815;28;20033;-94
2022/11/08 03:48:58;;;;;;;21.85;11.73;;;;;;;7.92;74.27;99937.66;4985378;28;20027;-94
2022/11/08 03:51:23;;;;;;;18.75;10.50;;;;;;;7.89;74.16;99927.41;4966412;28;20030;-95
2022/11/08 03:53:49;;;;;;;20.50;10.32;;;;;;;8.01;74.35;99943.47;4970961;28;20025;-94
2022/11/08 03:56:14;;;;;;;18.73;10.05;;;;;;;7.88;73.92;99923.91;4970476;28;20038;-95
2022/11/08 03:58:40;;;;;;;17.42;9.68;;;;;;;8.00;74.10;99937.28;4970433;28;20030;-94
2022/11/08 04:01:05;;;;;;;18.05;9.77;;;;;;;8.00;73.82;99926.56;4968742;28;20037;-94
2022/11/08 04:03:31;;;;;;;21.27;11.23;;;;;;;7.97;73.93;99940.47;4973283;28;20030;-93
2022/11/08 04:05:59;;;;;;;16.20;9.40;;;;;;;7.97;73.45;99939.63;4974589;28;20029;-94
2022/11/08 04:08:25;;;;;;;25.48;10.25;;;;;;;7.85;74.07;99937.78;4973001;28;20036;-94
2022/11/08 04:10:54;;;;;;;18.58;10.32;;;;;;;7.73;74.25;99930.84;4971464;28;20022;-94
2022/11/08 04:16:11;;;;;;;28.05;11.73;;;;;;;7.68;74.32;99924.31;4996397;28;20091;-95
2022/11/08 04:21:21;;;;;;;21.85;10.70;;;;;;;7.73;74.48;99936.19;4997105;28;20044;-94
2022/11/08 04:23:48;;;;;;;22.65;11.43;;;;;;;7.82;74.54;99940.13;4985323;28;20025;-95
2022/11/08 04:26:13;;;;;;;28.02;9.93;;;;;;;7.79;74.27;99919.97;4986903;28;20565;-94
2022/11/08 04:28:40;;;;;;;23.73;9.93;;;;;;;8.01;73.97;99933.56;5003138;28;20037;-94
2022/11/08 04:31:16;;;;;;;16.23;9.15;;;;;;;8.10;73.31;99928.63;4986867;28;20052;-94
2022/11/08 04:33:42;;;;;;;17.92;10.48;;;;;;;8.18;73.16;99932.81;5003353;28;20045;-95
2022/11/08 04:36:12;;;;;;;19.67;10.65;;;;;;;8.09;73.69;99941.25;4986214;28;20025;-95
2022/11/08 04:38:38;;;;;;;16.50;10.40;;;;;;;8.00;73.52;99917.72;4986404;28;20025;-94
2022/11/08 04:41:09;;;;;;;25.02;10.80;;;;;;;7.98;73.88;99928.66;4985910;28;20036;-94
2022/11/08 04:43:35;;;;;;;17.45;10.15;;;;;;;7.99;74.24;99937.53;4986102;28;20032;-93
2022/11/08 04:46:05;;;;;;;18.70;9.85;;;;;;;8.04;73.78;99932.28;5002639;28;20695;-93
2022/11/08 04:48:31;;;;;;;16.95;10.35;;;;;;;8.03;73.80;99941.34;4986690;28;20032;-95
2022/11/08 04:51:01;;;;;;;19.77;10.88;;;;;;;7.96;73.96;99933.44;4985398;28;20021;-94
2022/11/08 04:53:26;;;;;;;20.90;10.60;;;;;;;7.97;74.47;99939.63;4985458;28;20021;-94
2022/11/08 04:56:23;;;;;;;21.45;10.18;;;;;;;8.06;73.74;99935.53;4986528;28;20044;-95
2022/11/08 04:58:50;;;;;;;21.63;10.90;;;;;;;8.02;73.55;99929.00;4999407;28;20034;-95
2022/11/08 05:01:18;;;;;;;19.92;10.98;;;;;;;8.08;73.55;99941.47;4964640;28;20026;-94
2022/11/08 05:03:47;;;;;;;22.23;11.13;;;;;;;8.05;73.63;99925.84;4964047;28;20504;-94
2022/11/08 05:06:15;;;;;;;19.10;9.90;;;;;;;8.15;73.56;99946.69;4970531;28;20036;-92
2022/11/08 05:08:40;;;;;;;24.38;10.95;;;;;;;8.04;74.16;99937.63;4968004;28;20029;-93
2022/11/08 05:11:07;;;;;;;17.95;11.02;;;;;;;8.02;73.98;99935.19;4966333;28;20109;-93
2022/11/08 05:13:33;;;;;;;19.63;10.13;;;;;;;8.11;73.74;99943.66;4966181;28;20028;-93
2022/11/08 05:16:03;;;;;;;20.23;10.98;;;;;;;8.17;73.39;99956.13;4971834;28;20022;-94
2022/11/08 05:18:29;;;;;;;19.92;10.68;;;;;;;8.28;73.44;99959.84;4968569;28;20232;-93
2022/11/08 05:23:39;;;;;;;21.40;11.70;;;;;;;8.20;73.31;99960.22;4983871;28;20045;-93
2022/11/08 05:26:05;;;;;;;20.50;11.45;;;;;;;8.25;73.08;99974.53;4947219;28;20447;-94
2022/11/08 05:28:31;;;;;;;23.27;10.70;;;;;;;8.32;73.33;99981.63;4947047;28;20395;-94
2022/11/08 05:30:56;;;;;;;19.85;11.25;;;;;;;8.16;73.58;99964.44;4947621;28;20025;-95
2022/11/08 05:33:22;;;;;;;24.90;11.43;;;;;;;8.10;73.44;99966.19;4946934;28;20065;-93
2022/11/08 05:35:47;;;;;;;25.63;11.13;;;;;;;8.07;73.70;99972.84;4946981;28;20026;-94
2022/11/08 05:38:13;;;;;;;28.17;11.95;;;;;;;8.12;73.41;99982.06;4962675;28;20030;-93
2022/11/08 05:40:39;;;;;;;20.83;11.68;;;;;;;8.08;73.62;99966.41;4947351;28;20026;-94
2022/11/08 05:43:05;;;;;;;32.90;14.93;;;;;;;8.05;73.82;99983.00;4964574;28;20030;-95
2022/11/08 05:45:30;;;;;;;21.25;11.63;;;;;;;8.21;73.21;99983.28;4950269;28;20045;-95
2022/11/08 05:48:02;;;;;;;27.10;13.40;;;;;;;8.18;73.55;99983.78;4950628;28;20022;-95
2022/11/08 05:50:34;;;;;;;;;;;;;;;8.30;73.12;100008.72;4952453;28;20026;-95
2022/11/08 05:53:02;;;;;;;21.77;11.37;;;;;;;8.15;72.79;99992.28;4985029;28;20013;-94
2022/11/08 05:55:27;;;;;;;29.10;12.48;;;;;;;8.19;72.92;99988.09;4971480;28;20022;-95
2022/11/08 05:57:53;;;;;;;25.58;13.85;;;;;;;8.08;73.04;99985.19;4971771;28;20080;-95
2022/11/08 06:00:19;;;;;;;24.63;13.60;;;;;;;8.14;73.41;99993.34;4978582;28;20515;-94
2022/11/08 06:02:44;;;;;;;29.38;12.85;;;;;;;8.20;73.38;99997.78;4986006;28;20025;-94
2022/11/08 06:05:10;;;;;;;26.83;14.02;;;;;;;8.23;72.83;100000.78;4986157;28;20025;-94
2022/11/08 06:07:35;;;;;;;23.63;13.13;;;;;;;8.33;73.36;100010.91;4987033;28;20021;-93
2022/11/08 06:10:01;;;;;;;26.40;12.77;;;;;;;8.46;72.63;100010.66;5004501;28;20036;-96
2022/11/08 06:12:30;;;;;;;31.15;13.27;;;;;;;8.43;72.61;99988.88;5003867;28;20021;-96
2022/11/08 06:15:13;;;;;;;29.27;14.85;;;;;;;8.64;71.82;100000.81;4965652;28;20101;-96
2022/11/08 06:17:47;;;;;;;23.20;13.13;;;;;;;8.71;71.61;99998.78;4962608;28;20030;-96
2022/11/08 06:20:13;;;;;;;26.50;12.50;;;;;;;8.74;71.60;99994.81;4950643;28;20492;-95
2022/11/08 06:22:38;;;;;;;24.52;13.35;;;;;;;8.86;71.33;99996.38;4954223;28;20027;-94
2022/11/08 06:25:24;;;;;;;30.75;13.75;;;;;;;8.87;71.09;99986.44;4947496;28;20042;-93
2022/11/08 06:27:49;;;;;;;21.40;12.55;;;;;;;9.07;70.90;100016.34;4956039;28;20476;-96
2022/11/08 06:30:15;;;;;;;25.90;12.48;;;;;;;9.20;70.32;100012.53;4936247;28;20049;-93
2022/11/08 06:32:43;;;;;;;22.20;12.52;;;;;;;9.41;69.40;100010.16;4949652;28;20100;-95
2022/11/08 06:35:09;;;;;;;31.50;12.32;;;;;;;9.46;69.50;100008.38;4962225;28;20034;-95
2022/11/08 06:37:37;;;;;;;46.03;23.80;;;;;;;9.48;69.26;99990.13;4957634;28;20037;-95
2022/11/08 06:40:02;;;;;;;30.38;16.25;;;;;;;9.69;69.36;100012.75;4948965;28;20038;-94
2022/11/08 06:42:28;;;;;;;30.02;16.88;;;;;;;9.70;69.01;99997.44;4945233;28;20130;-94
2022/11/08 06:44:57;;;;;;;25.67;15.55;;;;;;;10.07;68.73;100031.84;4948297;28;20029;-94
2022/11/08 06:47:22;;;;;;;107.80;61.92;;;;;;;9.80;69.74;100000.28;4965583;28;20605;-92
2022/11/08 06:49:48;;;;;;;19.75;13.02;;;;;;;10.00;68.89;100005.13;4983151;28;20021;-94
2022/11/08 06:52:13;;;;;;;20.10;14.55;;;;;;;10.15;68.68;100009.03;4993111;28;20013;-95
2022/11/08 06:54:45;;;;;;;24.13;13.68;;;;;;;10.13;68.61;99998.56;4999740;28;20029;-95
2022/11/08 06:57:10;;;;;;;25.33;12.38;;;;;;;10.14;69.33;100004.75;4976041;28;20576;-94
2022/11/08 06:59:36;;;;;;;22.33;10.60;;;;;;;10.12;69.25;100010.38;4977106;28;20044;-94
2022/11/08 07:02:02;;;;;;;21.55;9.45;;;;;;;10.25;68.42;100009.19;4984738;28;20026;-94
2022/11/08 07:04:33;;;;;;;15.82;9.85;;;;;;;10.27;68.74;100004.34;4968477;28;20049;-95
2022/11/08 07:07:05;;;;;;;22.42;9.23;;;;;;;10.28;68.83;100011.38;4969195;28;20021;-96
2022/11/08 07:09:30;;;;;;;17.13;9.57;;;;;;;10.29;68.78;100000.41;4971048;28;20046;-95
2022/11/08 07:11:59;;;;;;;18.95;10.93;;;;;;;10.34;68.74;100006.91;4969589;28;20022;-95
2022/11/08 07:14:28;;;;;;;24.60;10.90;;;;;;;10.47;68.55;100007.31;4973428;28;20400;-93
2022/11/08 07:16:53;;;;;;;18.73;10.55;;;;;;;10.31;68.31;100000.97;4996818;28;20411;-96
2022/11/08 07:19:28;;;;;;;27.98;10.38;;;;;;;10.59;68.03;100017.97;4978276;28;20037;-96
2022/11/08 07:22:28;;;;;;;;;;;;;;;;;;;;;
2022/11/08 07:25:13;;;;;;;18.45;9.65;;;;;;;10.91;67.67;100019.91;4986257;28;20049;-94
2022/11/08 07:27:44;;;;;;;20.27;9.98;;;;;;;10.99;66.88;100003.28;4990704;28;20109;-95
2022/11/08 07:30:26;;;;;;;21.00;10.88;;;;;;;11.10;66.71;99996.91;4969656;28;20053;-96
2022/11/08 07:32:55;;;;;;;21.35;11.15;;;;;;;11.30;65.99;100009.75;5003497;28;20110;-95
2022/11/08 07:35:20;;;;;;;26.52;11.57;;;;;;;11.42;65.85;100016.84;4994166;28;20029;-94
2022/11/08 07:37:51;;;;;;;19.92;11.13;;;;;;;11.52;65.53;100019.63;4989003;28;20054;-91
2022/11/08 07:40:17;;;;;;;56.67;29.20;;;;;;;11.52;65.33;100003.44;4984920;28;20033;-92
2022/11/08 07:42:43;;;;;;;60.58;29.10;;;;;;;11.63;64.88;99990.84;4967271;28;20037;-91
2022/11/08 07:45:09;;;;;;;23.58;13.82;;;;;;;11.82;64.62;100007.41;4981683;28;20511;-91
2022/11/08 07:47:38;;;;;;;20.83;11.65;;;;;;;11.90;64.33;99996.16;4982187;28;20022;-91
2022/11/08 07:50:06;;;;;;;22.40;11.38;;;;;;;12.05;64.00;100008.91;4983423;28;20106;-91
2022/11/08 07:52:40;;;;;;;21.50;12.20;;;;;;;12.08;64.02;99990.31;4995237;28;20085;-94
2022/11/08 07:55:07;;;;;;;24.83;12.57;;;;;;;12.16;63.86;99986.31;4990918;28;20033;-92
2022/11/08 07:57:33;;;;;;;23.65;14.65;;;;;;;12.33;63.54;99989.59;4984773;28;20037;-93
2022/11/08 07:59:59;;;;;;;22.77;11.05;;;;;;;12.48;62.63;99996.94;4989664;28;20464;-92
2022/11/08 08:02:31;;;;;;;17.67;10.38;;;;;;;12.68;62.71;100011.59;4991079;28;20079;-93
2022/11/08 08:04:57;;;;;;;23.38;11.45;;;;;;;12.72;62.84;100018.88;5002146;28;20033;-92
2022/11/08 08:07:22;;;;;;;27.25;12.25;;;;;;;12.70;62.44;99991.31;5009065;28;20040;-93
2022/11/08 08:10:14;;;;;;;19.35;11.20;;;;;;;12.70;62.17;99971.56;4996020;28;20018;-94
2022/11/08 08:12:54;;;;;;;22.30;14.65;;;;;;;12.91;61.78;99985.94;4967782;28;20114;-96
2022/11/08 08:15:22;;;;;;;28.52;14.82;;;;;;;12.93;61.86;99989.19;4947395;28;20518;-93
2022/11/08 08:17:51;;;;;;;26.83;16.58;;;;;;;12.98;61.81;99988.38;4936320;28;20054;-93
2022/11/08 08:23:02;;;;;;;20.48;11.13;;;;;;;13.27;61.36;100010.31;4952577;28;20051;-94
2022/11/08 08:25:36;;;;;;;17.75;10.63;;;;;;;13.26;61.16;100012.19;4945303;28;20121;-92
2022/11/08 08:28:02;;;;;;;17.80;11.30;;;;;;;13.02;61.65;99992.19;4937414;28;20082;-91
2022/11/08 08:30:29;;;;;;;22.70;12.60;;;;;;;13.12;61.49;100011.09;4934175;29;20040;-92
2022/11/08 08:33:14;;;;;;;29.65;16.02;;;;;;;13.19;61.58;100013.53;4926713;29;20064;-93
2022/11/08 08:35:43;;;;;;;39.55;23.40;;;;;;;13.09;61.83;100004.34;4926504;28;20043;-92
2022/11/08 08:38:35;;;;;;;29.85;17.30;;;;;;;13.09;61.32;100004.34;4960005;28;20038;-94
2022/11/08 08:41:01;;;;;;;23.33;13.27;;;;;;;13.13;61.37;100002.72;4963463;28;20034;-92
2022/11/08 08:43:32;;;;;;;19.92;12.18;;;;;;;13.22;61.23;100011.13;4960846;28;20133;-93
2022/11/08 08:45:59;;;;;;;20.08;12.95;;;;;;;13.21;61.16;100009.47;4988320;28;20030;-93
2022/11/08 08:48:25;;;;;;;18.10;11.88;;;;;;;13.32;60.59;100007.59;4963666;28;20049;-96
2022/11/08 08:50:57;;;;;;;22.88;12.15;;;;;;;13.30;61.16;100009.78;4998889;28;20128;-96
2022/11/08 08:53:23;;;;;;;29.45;12.52;;;;;;;13.33;60.96;100006.53;5018033;28;20037;-93
2022/11/08 08:55:51;;;;;;;19.55;12.77;;;;;;;13.30;61.57;100013.31;5021605;28;20036;-96
2022/11/08 08:58:20;;;;;;;20.60;12.98;;;;;;;13.36;61.84;100014.09;5008111;28;20037;-96
2022/11/08 09:01:07;;;;;;;;;;;;;;;;;;;;;
2022/11/08 09:04:12;;;;;;;;;;;;;;;;;;;;;
2022/11/08 09:17:45;;;;;;;23.58;14.55;;;;;;;13.49;61.57;100018.97;5018654;28;20053;-96
2022/11/08 09:23:03;;;;;;;31.58;16.52;;;;;;;13.62;61.69;100043.88;5140196;23;20492;-96
2022/11/08 09:28:08;;;;;;;25.50;14.85;;;;;;;13.49;61.34;100007.34;5064464;23;20042;-94
2022/11/08 09:31:02;;;;;;;28.85;15.82;;;;;;;13.48;61.60;100009.22;4971915;28;20021;-95
2022/11/08 09:33:52;;;;;;;33.42;17.80;;;;;;;13.51;61.47;100022.22;5038773;23;20409;-94
2022/11/08 09:36:22;;;;;;;26.58;15.45;;;;;;;13.50;61.39;100014.38;5010606;28;20022;-95
2022/11/08 09:44:38;;;;;;;33.78;16.48;;;;;;;13.67;62.09;100041.94;5095761;23;20049;-96
2022/11/08 09:47:25;;;;;;;34.78;17.33;;;;;;;13.74;61.73;100041.69;5017782;28;20118;-95
2022/11/08 09:50:23;;;;;;;33.13;17.95;;;;;;;13.78;62.06;100036.53;4987217;28;20044;-94
2022/11/08 09:53:06;;;;;;;29.08;16.73;;;;;;;13.78;61.25;100023.81;4993469;28;20041;-96
2022/11/08 09:55:50;;;;;;;26.85;15.38;;;;;;;13.76;61.46;100017.88;4984549;28;20044;-94
2022/11/08 09:58:42;;;;;;;30.20;17.20;;;;;;;13.83;61.76;100023.00;4969707;28;20117;-95
2022/11/08 10:04:34;;;;;;;29.52;16.75;;;;;;;13.96;61.39;100017.00;4954721;29;20434;-93
2022/11/08 10:07:12;;;;;;;27.25;17.17;;;;;;;14.00;61.18;100001.81;4901381;29;20031;-93
2022/11/08 10:10:18;;;;;;;22.23;13.32;;;;;;;14.20;60.90;100025.31;4949143;28;20026;-96
2022/11/08 10:14:05;;;;;;;29.27;15.95;;;;;;;14.14;61.11;100008.28;5001136;28;20046;-94
2022/11/08 10:16:51;;;;;;;34.83;16.30;;;;;;;14.14;60.67;99997.44;4906802;29;20076;-94
2022/11/08 10:19:47;;;;;;;;;;;;;;;;;;;;;
2022/11/08 10:22:50;;;;;;;31.90;14.60;;;;;;;14.52;59.97;100016.78;4919424;29;20074;-96
2022/11/08 10:25:43;;;;;;;28.27;13.82;;;;;;;14.34;60.24;99987.63;4917914;29;20028;-93
2022/11/08 10:28:49;;;;;;;27.35;14.50;;;;;;;14.50;60.24;100001.88;4903437;29;20043;-95
2022/11/08 10:31:38;;;;;;;28.45;13.52;;;;;;;14.50;60.19;99983.72;4909267;29;20040;-96
2022/11/08 10:34:46;;;;;;;21.15;11.70;;;;;;;14.79;60.10;100003.94;4944275;28;20068;-96
2022/11/08 10:38:21;;;;;;;24.08;14.85;;;;;;;14.84;59.68;99983.03;4933771;29;20124;-96
2022/11/08 10:41:37;;;;;;;18.73;11.27;;;;;;;14.95;60.11;99979.13;4867712;29;20051;-95
2022/11/08 10:44:14;;;;;;;12.57;7.88;;;;;;;15.27;59.93;100002.25;4945390;29;20051;-95
2022/11/08 10:50:55;;;;;;;15.95;6.85;;;;;;;15.15;60.12;99971.97;4924654;29;20506;-95
2022/11/08 10:53:27;;;;;;;12.95;7.50;;;;;;;15.31;59.80;99978.03;4892161;29;20039;-93
2022/11/08 10:56:07;;;;;;;15.00;7.65;;;;;;;15.29;59.67;99967.50;4933393;28;20449;-96
2022/11/08 11:06:17;;;;;;;14.27;7.60;;;;;;;15.39;59.73;99968.47;4931443;29;20159;-96
2022/11/08 11:12:15;;;;;;;13.38;6.47;;;;;;;15.39;59.23;99950.28;4914870;29;20055;-93
2022/11/08 11:14:43;;;;;;;14.30;8.25;;;;;;;15.57;59.04;99955.00;4975284;28;20049;-93
2022/11/08 11:18:12;;;;;;;19.15;8.35;;;;;;;15.81;58.54;99980.56;4967604;28;20037;-95
2022/11/08 11:20:40;;;;;;;11.10;6.93;;;;;;;15.92;57.79;99963.09;4958248;28;20026;-90
2022/11/08 11:23:13;;;;;;;11.80;7.38;;;;;;;15.99;57.44;99952.66;4966932;28;20033;-94
2022/11/08 11:25:59;;;;;;;15.20;7.97;;;;;;;15.69;57.89;99945.66;4984315;28;20025;-93
2022/11/08 11:28:25;;;;;;;10.63;6.55;;;;;;;15.92;57.23;99953.03;4987818;28;20026;-94
2022/11/08 11:31:10;;;;;;;19.88;8.25;;;;;;;15.87;56.89;99958.50;4969627;28;20037;-95
2022/11/08 11:33:53;;;;;;;;;;;;;;;;;;;;;
2022/11/08 11:36:20;;;;;;;12.32;7.88;;;;;;;15.76;56.70;99940.72;5008937;28;20100;-95
2022/11/08 11:39:12;;;;;;;13.25;7.03;;;;;;;15.81;57.50;99951.50;4990000;28;20022;-95
2022/11/08 11:42:17;;;;;;;;;;;;;;;;;;;;;
2022/11/08 11:45:18;;;;;;;11.60;6.00;;;;;;;15.86;56.33;99956.91;5000547;28;20109;-96
2022/11/08 11:48:07;;;;;;;;;;;;;;;;;;;;;
2022/11/08 11:50:50;;;;;;;13.70;7.95;;;;;;;15.64;58.31;99951.94;5003630;28;20121;-96
2022/11/08 11:53:20;;;;;;;15.10;7.32;;;;;;;15.64;57.71;99954.66;4974748;28;20018;-96
2022/11/08 11:56:04;;;;;;;13.45;6.72;;;;;;;15.67;57.34;99953.28;4997944;28;20046;-93
2022/11/08 11:59:01;;;;;;;11.02;6.50;;;;;;;15.67;57.17;99950.56;5011265;28;20088;-93
2022/11/08 12:01:26;;;;;;;13.15;6.68;;;;;;;15.76;57.37;99948.84;5014295;28;20077;-92
2022/11/08 12:04:27;;;;;;;28.95;12.23;;;;;;;15.74;57.37;99951.06;5002800;28;20026;-94
2022/11/08 12:06:58;;;;;;;12.07;7.00;;;;;;;15.71;57.08;99940.75;4983869;28;20095;-92
2022/11/08 12:14:44;;;;;;;14.07;7.65;;;;;;;15.79;56.59;99923.84;4990726;28;20042;-94
2022/11/08 12:17:28;;;;;;;14.52;7.38;;;;;;;15.93;55.91;99948.38;4961639;28;20064;-92
2022/11/08 12:20:12;;;;;;;10.77;6.57;;;;;;;16.08;55.72;99936.53;4973750;28;20130;-91
2022/11/08 12:22:50;;;;;;;18.52;11.95;;;;;;;16.05;55.28;99926.25;4958792;28;20458;-91
2022/11/08 12:25:19;;;;;;;12.85;7.10;;;;;;;16.19;54.73;99935.31;4947120;28;20384;-91
2022/11/08 12:28:15;;;;;;;13.75;7.25;;;;;;;16.12;54.73;99927.53;4948920;28;20035;-91
2022/11/08 12:30:49;;;;;;;21.02;11.48;;;;;;;15.99;54.90;99906.50;4976588;28;20134;-91
2022/11/08 12:33:52;;;;;;;16.08;9.05;;;;;;;16.19;54.40;99921.72;4933514;28;20526;-95
2022/11/08 12:36:25;;;;;;;17.10;8.07;;;;;;;16.23;54.27;99920.03;4947056;28;20035;-94
2022/11/08 12:39:24;;;;;;;9.50;6.43;;;;;;;16.28;53.73;99924.59;4949222;28;20038;-93
2022/11/08 12:41:53;;;;;;;12.23;7.15;;;;;;;16.33;54.04;99927.22;4978905;28;20027;-94
2022/11/08 12:44:37;;;;;;;19.00;7.93;;;;;;;16.38;53.67;99923.66;4977514;28;20031;-91
2022/11/08 12:47:09;;;;;;;13.55;6.75;;;;;;;16.34;53.75;99924.22;4963584;28;20027;-94
2022/11/08 12:49:49;;;;;;;24.98;17.23;;;;;;;16.32;54.04;99922.91;4978957;28;20148;-94
2022/11/08 12:52:15;;;;;;;33.83;17.85;;;;;;;16.21;54.25;99913.25;4987434;28;20030;-93
2022/11/08 12:54:43;;;;;;;21.00;12.27;;;;;;;16.25;53.83;99906.97;4979278;28;20034;-95
2022/11/08 12:57:13;;;;;;;16.00;8.43;;;;;;;16.30;53.39;99915.03;4950009;28;20111;-94
2022/11/08 12:59:44;;;;;;;9.43;6.45;;;;;;;16.26;52.96;99905.06;4948750;28;20030;-93
2022/11/08 13:02:40;;;;;;;13.32;7.03;;;;;;;16.33;53.17;99925.34;4948839;28;20030;-92